Terminal Aerodrome Forecast
Issued by NWS Goodland, KS

Home | Current Version | Previous Version | Text Only | Print | Product List | Glossary On
Versions: 1 2 3 4 5 6 7 8 9 10 11 12 13 14 15
885
FTUS43 KGLD 221720
TAFGLD
TAF
KGLD 221720Z 2218/2318 24016G26KT P6SM SKC
     FM222200 28011KT P6SM SCT280
     FM230000 23006KT P6SM SCT280
     FM230700 27010KT P6SM SCT240
     FM231100 33012KT P6SM SCT070
     FM231400 35017G24KT P6SM SCT060=

USA.gov is the U.S. government's official web portal to all federal, state and local government web resources and services.